createdAt,value
2023-05-09T00:04:34.579Z,1.24
2023-05-09T00:09:36.833Z,1.19
2023-05-09T00:14:41.095Z,1.19
2023-05-09T00:19:44.351Z,1.23
2023-05-09T00:24:46.808Z,1.29
2023-05-09T00:29:49.086Z,1.24
2023-05-09T00:34:51.480Z,1.31
2023-05-09T00:39:53.945Z,0.95
2023-05-09T00:44:56.267Z,0.69
2023-05-09T00:49:58.830Z,0.57
2023-05-09T00:55:02.693Z,1.19
2023-05-09T01:00:07.416Z,0.84
2023-05-09T01:05:10.541Z,1.24
2023-05-09T01:10:31.700Z,1.29
2023-05-09T01:15:50.787Z,1.24
2023-05-09T01:20:59.049Z,1.18
2023-05-09T01:26:41.979Z,1.16
2023-05-09T01:31:45.970Z,0.64
2023-05-09T01:36:50.652Z,0.15
2023-05-09T01:41:55.543Z,0.37
2023-05-09T01:46:59.120Z,0.36
2023-05-09T01:52:05.157Z,0.90
2023-05-09T01:57:08.915Z,0.20
2023-05-09T02:02:12.095Z,0.46
2023-05-09T02:07:14.673Z,0.83
2023-05-09T02:12:17.283Z,0.50
2023-05-09T02:17:19.656Z,0.58
2023-05-09T02:22:22.301Z,0.60
2023-05-09T02:27:25.139Z,0.60
2023-05-09T02:32:30.815Z,0.76
2023-05-09T02:37:34.026Z,0.77
2023-05-09T02:42:37.212Z,0.35
2023-05-09T02:47:40.072Z,0.78
2023-05-09T02:52:42.467Z,0.15
2023-05-09T02:57:44.943Z,0.28
2023-05-09T03:02:47.477Z,0.84
2023-05-09T03:07:52.395Z,0.33
2023-05-09T03:12:54.766Z,0.36
2023-05-09T03:17:57.324Z,0.81
2023-05-09T03:22:59.705Z,0.59
2023-05-09T03:28:02.384Z,1.02
2023-05-09T03:33:06.559Z,1.13
2023-05-09T03:38:08.866Z,1.01
2023-05-09T03:43:11.417Z,1.37
2023-05-09T03:48:13.827Z,1.91
2023-05-09T03:53:24.205Z,1.42
2023-05-09T03:58:28.436Z,2.40
2023-05-09T04:03:32.368Z,2.31
2023-05-09T04:08:35.284Z,2.76
2023-05-09T04:13:39.520Z,3.21
2023-05-09T04:18:52.775Z,2.84
2023-05-09T04:23:55.360Z,3.48
2023-05-09T04:29:05.226Z,3.76
2023-05-09T04:34:08.252Z,4.11
2023-05-09T04:39:13.272Z,4.56
2023-05-09T04:44:24.783Z,4.72
2023-05-09T04:49:27.352Z,5.34
2023-05-09T04:54:29.769Z,5.64
2023-05-09T04:59:33.281Z,5.73
2023-05-09T05:04:36.590Z,6.49
2023-05-09T05:09:39.148Z,6.68
2023-05-09T05:14:41.565Z,6.75
2023-05-09T05:19:45.902Z,7.23
2023-05-09T05:24:49.069Z,7.79
2023-05-09T05:29:51.651Z,7.88
2023-05-09T05:34:54.266Z,8.11
2023-05-09T05:39:57.048Z,8.09
2023-05-09T05:45:08.643Z,8.59
2023-05-09T05:50:16.593Z,8.90
2023-05-09T05:55:19.203Z,9.37
2023-05-09T06:00:22.757Z,9.28
2023-05-09T06:05:35.695Z,9.74
2023-05-09T06:10:38.130Z,9.94
2023-05-09T06:15:40.572Z,9.65
2023-05-09T06:20:42.909Z,9.87
2023-05-09T06:25:45.275Z,10.47
2023-05-09T06:30:47.732Z,10.58
2023-05-09T06:35:50.682Z,10.90
2023-05-09T06:40:52.989Z,11.02
2023-05-09T06:45:55.341Z,10.80
2023-05-09T06:50:57.708Z,10.64
2023-05-09T06:56:00.144Z,10.85
2023-05-09T07:01:02.567Z,10.74
2023-05-09T07:06:05.457Z,10.55
2023-05-09T07:11:07.809Z,10.49
2023-05-09T07:16:10.260Z,10.72
2023-05-09T07:21:12.778Z,10.37
2023-05-09T07:26:15.173Z,10.48
2023-05-09T07:31:17.873Z,10.21
2023-05-09T07:36:26.176Z,10.87
2023-05-09T07:41:28.621Z,11.21
2023-05-09T07:46:33.980Z,11.06
2023-05-09T07:51:36.335Z,11.04
2023-05-09T07:56:40.234Z,11.19
2023-05-09T08:01:45.817Z,10.84
2023-05-09T08:06:48.355Z,11.04
2023-05-09T08:11:55.463Z,11.01
2023-05-09T08:28:08.856Z,10.96
2023-05-09T08:33:12.086Z,10.99
2023-05-09T08:38:16.556Z,11.28
2023-05-09T08:43:20.942Z,11.39
2023-05-09T08:48:23.880Z,11.18
2023-05-09T08:53:27.918Z,11.08
2023-05-09T08:58:31.948Z,11.88
2023-05-09T09:03:34.484Z,11.96
2023-05-09T09:08:37.066Z,12.11
2023-05-09T09:13:41.402Z,12.46
2023-05-09T09:18:44.118Z,12.34
2023-05-09T09:23:50.676Z,12.42
2023-05-09T09:28:55.313Z,12.39
2023-05-09T09:34:02.483Z,12.34
2023-05-09T09:39:06.041Z,12.15
2023-05-09T09:44:09.924Z,12.26
2023-05-09T09:49:14.309Z,12.13
2023-05-09T09:54:16.850Z,11.93
2023-05-09T09:59:25.338Z,11.93
2023-05-09T10:04:30.834Z,12.20
2023-05-09T10:09:38.381Z,12.02
2023-05-09T10:14:42.677Z,12.46
2023-05-09T10:19:46.844Z,12.80
2023-05-09T10:24:58.104Z,12.99
2023-05-09T10:30:07.998Z,13.35
2023-05-09T10:35:14.575Z,13.34
2023-05-09T10:40:18.182Z,13.32
2023-05-09T10:45:22.578Z,13.67
2023-05-09T10:50:25.726Z,14.01
2023-05-09T10:55:40.383Z,14.20
2023-05-09T11:00:43.032Z,14.17
2023-05-09T11:05:47.452Z,13.94
2023-05-09T11:10:50.020Z,13.48
2023-05-09T11:16:09.042Z,14.00
2023-05-09T11:21:12.164Z,13.75
2023-05-09T11:26:15.381Z,13.51
2023-05-09T11:31:19.529Z,13.40
2023-05-09T11:36:29.966Z,13.75
2023-05-09T11:41:39.824Z,13.67
2023-05-09T11:46:43.164Z,13.71
2023-05-09T11:51:45.786Z,13.84
2023-05-09T11:56:48.196Z,13.90
2023-05-09T12:01:50.828Z,14.09
2023-05-09T12:06:53.341Z,14.11
2023-05-09T12:11:56.971Z,14.42
2023-05-09T12:17:00.508Z,14.48
2023-05-09T12:22:08.289Z,14.70
2023-05-09T12:27:10.881Z,14.48
2023-05-09T12:32:14.899Z,14.99
2023-05-09T12:37:20.310Z,14.99
2023-05-09T12:42:22.823Z,14.61
2023-05-09T12:47:29.853Z,14.67
2023-05-09T12:58:03.169Z,15.33
2023-05-09T13:03:06.482Z,14.97
2023-05-09T13:08:09.024Z,15.52
2023-05-09T13:13:19.858Z,15.55
2023-05-09T13:18:23.686Z,15.58
2023-05-09T13:23:26.350Z,15.36
2023-05-09T13:28:28.822Z,15.31
2023-05-09T13:33:31.890Z,15.45
2023-05-09T13:38:39.027Z,15.50
2023-05-09T13:43:42.928Z,15.34
2023-05-09T13:48:45.596Z,15.11
2023-05-09T13:53:48.032Z,15.16
2023-05-09T13:58:50.518Z,14.58
2023-05-09T14:03:53.089Z,14.58
2023-05-09T14:08:56.662Z,14.53
2023-05-09T14:13:59.077Z,14.02
2023-05-09T14:19:01.822Z,14.38
2023-05-09T14:24:04.893Z,13.74
2023-05-09T14:29:07.417Z,13.78
2023-05-09T14:34:09.964Z,13.84
2023-05-09T14:39:12.920Z,13.73
2023-05-09T14:44:15.450Z,13.78
2023-05-09T14:49:17.860Z,13.73
2023-05-09T14:54:20.390Z,13.63
2023-05-09T14:59:23.503Z,13.85
2023-05-09T15:04:30.972Z,13.65
2023-05-09T15:09:33.607Z,13.77
2023-05-09T15:14:36.208Z,13.55
2023-05-09T15:19:38.749Z,13.61
2023-05-09T15:24:44.007Z,13.50
2023-05-09T15:29:47.485Z,13.21
2023-05-09T15:34:49.841Z,13.35
2023-05-09T15:39:52.632Z,13.58
2023-05-09T15:44:55.197Z,13.55
2023-05-09T15:49:57.656Z,13.16
2023-05-09T15:55:00.313Z,13.23
2023-05-09T16:00:02.843Z,13.25
2023-05-09T16:05:15.041Z,12.98
2023-05-09T16:10:17.827Z,13.17
2023-05-09T16:15:20.601Z,12.75
2023-05-09T16:20:23.378Z,13.11
2023-05-09T16:25:25.835Z,12.78
2023-05-09T16:30:28.467Z,12.46
2023-05-09T16:35:34.277Z,12.88
2023-05-09T16:40:37.239Z,12.32
2023-05-09T16:45:39.847Z,12.49
2023-05-09T16:50:43.737Z,12.49
2023-05-09T16:55:47.737Z,12.05
2023-05-09T17:00:51.329Z,12.16
2023-05-09T17:05:53.838Z,11.40
2023-05-09T17:10:56.380Z,11.63
2023-05-09T17:15:58.912Z,11.21
2023-05-09T17:21:01.911Z,11.54
2023-05-09T17:26:04.431Z,11.43
2023-05-09T17:31:07.470Z,11.26
2023-05-09T17:36:10.132Z,10.39
2023-05-09T17:41:12.774Z,10.74
2023-05-09T17:46:15.371Z,10.77
2023-05-09T17:51:17.999Z,10.02
2023-05-09T17:56:20.579Z,9.83
2023-05-09T18:01:23.625Z,10.28
2023-05-09T18:06:26.723Z,10.19
2023-05-09T18:11:29.530Z,9.79
2023-05-09T18:16:34.366Z,9.72
2023-05-09T18:21:38.061Z,9.44
2023-05-09T18:26:40.568Z,9.90
2023-05-09T18:31:44.876Z,9.14
2023-05-09T18:36:47.691Z,9.13
2023-05-09T18:41:50.195Z,9.33
2023-05-09T18:46:54.602Z,8.43
2023-05-09T18:51:57.288Z,7.42
2023-05-09T18:56:59.689Z,8.23
2023-05-09T19:02:02.214Z,9.47
2023-05-09T19:07:06.104Z,8.71
2023-05-09T19:12:10.082Z,8.81
2023-05-09T19:17:14.096Z,8.95
2023-05-09T19:22:16.668Z,9.25
2023-05-09T19:27:19.571Z,9.19
2023-05-09T19:32:22.596Z,9.13
2023-05-09T19:37:25.068Z,9.02
2023-05-09T19:42:28.295Z,8.47
2023-05-09T19:47:30.958Z,8.80
2023-05-09T19:52:33.564Z,7.88
2023-05-09T19:57:39.561Z,8.36
2023-05-09T20:02:42.005Z,8.19
2023-05-09T20:07:44.645Z,8.40
2023-05-09T20:12:47.799Z,8.28
2023-05-09T20:17:50.382Z,7.93
2023-05-09T20:22:52.733Z,7.92
2023-05-09T20:27:55.104Z,7.65
2023-05-09T20:32:59.075Z,8.04
2023-05-09T20:38:01.743Z,7.81
2023-05-09T20:43:04.189Z,7.63
2023-05-09T20:48:07.068Z,7.71
2023-05-09T20:53:09.595Z,6.70
2023-05-09T20:58:15.149Z,7.58
2023-05-09T21:03:17.740Z,7.66
2023-05-09T21:08:21.777Z,7.58
2023-05-09T21:13:34.341Z,7.56
2023-05-09T21:18:36.729Z,6.98
2023-05-09T21:23:39.036Z,7.54
2023-05-09T21:28:41.425Z,6.93
2023-05-09T21:33:43.840Z,7.36
2023-05-09T21:38:46.219Z,7.15
2023-05-09T21:43:49.080Z,7.10
2023-05-09T21:48:51.531Z,6.58
2023-05-09T21:53:53.902Z,7.10
2023-05-09T21:58:56.428Z,6.82
2023-05-09T22:03:59.322Z,6.41
2023-05-09T22:09:01.804Z,6.59
2023-05-09T22:14:04.337Z,7.06
2023-05-09T22:19:06.879Z,7.17
2023-05-09T22:24:09.364Z,6.21
2023-05-09T22:29:11.742Z,6.95
2023-05-09T22:34:14.369Z,7.10
2023-05-09T22:39:17.193Z,6.79
2023-05-09T22:44:19.651Z,6.87
2023-05-09T22:49:22.482Z,6.61
2023-05-09T22:54:24.984Z,6.81
2023-05-09T22:59:27.540Z,6.58
2023-05-09T23:04:30.040Z,6.68
2023-05-09T23:09:32.473Z,6.78
2023-05-09T23:14:35.088Z,5.79
2023-05-09T23:19:37.664Z,6.10
2023-05-09T23:24:40.167Z,6.85
2023-05-09T23:29:42.649Z,6.39
2023-05-09T23:34:45.088Z,6.73
2023-05-09T23:39:47.412Z,6.77
2023-05-09T23:44:49.807Z,6.71
2023-05-09T23:49:52.300Z,6.65
2023-05-09T23:54:54.739Z,6.83
2023-05-09T23:59:57.315Z,6.53
